ADDS TAF Board (Experimental) INFO Settings
IDs:

KMCI - Kansas City Intl, MO, US

Issued at 2030 UTC 25 May 2015
Updated at: 2328 UTC 25 May 2015
Time2253Z 26/00Z 26/01Z 26/02Z 26/03Z 26/04Z 26/05Z 26/06Z 26/07Z 26/08Z 26/09Z 26/10Z 26/11Z 26/12Z
Type OBS PRVL PRVL PRVL PRVL PRVL PRVL PRVL PRVL PRVL PRVL PRVL PRVL PRVL
VIS 10 >6 >6 >6 >6 >6 >6 >6 >6 >6 >6 >6 >6 >6
CIG -- 50 50 50 30 30 30 30 50 50 50 50 50 100
Cover SCT BKN BKN BKN BKN BKN BKN BKN BKN BKN BKN BKN BKN BKN
FltCat VFR VFR VFR VFR MVFR MVFR MVFR MVFR VFR VFR VFR VFR VFR VFR
WX -- VCTS VCTS VCTS -TSRA -TSRA -TSRA -TSRA VCSH VCSH VCSH VCSH VCSH --
WDir 180 180 180 180 190 190 190 190 190 190 190 190 190 190
WSpd 17 10 10 10 8 8 8 8 8 8 8 8 8 8
WGst 23 -- -- -- -- -- -- -- -- -- -- -- -- --
R01/19
XWnd -4 -2 -2 -2 -0 -0 -0 -0 -0 -0 -0 -0 -0 -0
XGst -5 -- -- -- -- -- -- -- -- -- -- -- -- --
HWnd -17 -10 -10 -10 -8 -8 -8 -8 -8 -8 -8 -8 -8 -8
HGst -22 -- -- -- -- -- -- -- -- -- -- -- -- --
R09/27
XWnd -17 -10 -10 -10 -8 -8 -8 -8 -8 -8 -8 -8 -8 -8
XGst -23 -- -- -- -- -- -- -- -- -- -- -- -- --
HWnd 2 1 1 1 -1 -1 -1 -1 -1 -1 -1 -1 -1 -1
HGst 2 -- -- -- -- -- -- -- -- -- -- -- -- --

NOTE: TEMPO conditions in [brackets]. Keep in mind TEMPO conditions might be better (lower impact) than prevailing conditions.

Raw TAF
KMCI 252030Z 2521/2618 18012G21KT P6SM SCT025 BKN035
  FM260000 18010KT P6SM VCTS SCT030CB BKN050
  FM260300 19008KT P6SM -TSRA BKN030CB
  FM260700 19008KT P6SM VCSH BKN050
  FM261200 19008KT P6SM BKN100


Raw METAR
KMCI 252253Z 18017G23KT 10SM SCT045 SCT140 26/18 A2981 RMK AO2 SLP084 T02560183
KMCI 252153Z 17017KT 10SM SCT034 SCT055 BKN130 26/19 A2981 RMK AO2 SLP085 T02610189
KMCI 252053Z 20017G26KT 10SM SCT034 SCT055 BKN130 26/19 A2985 RMK AO2 PK WND 16027/2011 SLP100 P0000 60000 T02560189 58013

METAR Board
Radar Display
Forecast Discussion

TAF Board Legend

Potential Impact
Threat None Slight Moderate High
Visibility (sm) ≥5.1 5.1>X≥3 3>X≥1 <1
Ceiling (100 ft) ≥30.1 30.1>X≥10 10>X≥5 <5
Wind Speed (kt) <10 10≤X<20 20≤X<30 ≥30
Wind Gust (kt) <15 15≤X<25 25≤X<35 ≥35
Weather No Wx Reported VCTS,-TS,-FZRA,SN TS,FZRA +TS,+FZRA,+SN